sensor_id;sensor_type;location;lat;lon;timestamp;P1;durP1;ratioP1;P2;durP2;ratioP2
10013;SDS011;45684;48.358;10.746;2023-02-07T00:01:29;15.20;;;11.67;;
10013;SDS011;45684;48.358;10.746;2023-02-07T00:03:57;13.60;;;10.90;;
10013;SDS011;45684;48.358;10.746;2023-02-07T00:06:26;14.07;;;9.80;;
10013;SDS011;45684;48.358;10.746;2023-02-07T00:08:55;14.97;;;10.10;;
10013;SDS011;45684;48.358;10.746;2023-02-07T00:11:25;14.10;;;10.40;;
10013;SDS011;45684;48.358;10.746;2023-02-07T00:13:54;14.60;;;11.10;;
10013;SDS011;45684;48.358;10.746;2023-02-07T00:16:25;13.47;;;10.10;;
10013;SDS011;45684;48.358;10.746;2023-02-07T00:18:53;13.30;;;10.53;;
10013;SDS011;45684;48.358;10.746;2023-02-07T00:21:25;14.17;;;9.90;;
10013;SDS011;45684;48.358;10.746;2023-02-07T00:23:54;14.83;;;10.50;;
10013;SDS011;45684;48.358;10.746;2023-02-07T00:26:22;13.17;;;10.00;;
10013;SDS011;45684;48.358;10.746;2023-02-07T00:28:52;12.77;;;9.90;;
10013;SDS011;45684;48.358;10.746;2023-02-07T00:31:22;14.40;;;10.07;;
10013;SDS011;45684;48.358;10.746;2023-02-07T00:33:54;13.83;;;10.23;;
10013;SDS011;45684;48.358;10.746;2023-02-07T00:36:23;13.80;;;10.43;;
10013;SDS011;45684;48.358;10.746;2023-02-07T00:38:54;15.30;;;10.53;;
10013;SDS011;45684;48.358;10.746;2023-02-07T00:41:23;14.10;;;10.37;;
10013;SDS011;45684;48.358;10.746;2023-02-07T00:43:51;13.77;;;10.40;;
10013;SDS011;45684;48.358;10.746;2023-02-07T00:46:21;14.27;;;10.53;;
10013;SDS011;45684;48.358;10.746;2023-02-07T00:48:53;15.00;;;10.67;;
10013;SDS011;45684;48.358;10.746;2023-02-07T00:51:21;14.87;;;10.70;;
10013;SDS011;45684;48.358;10.746;2023-02-07T00:53:50;14.47;;;11.10;;
10013;SDS011;45684;48.358;10.746;2023-02-07T00:56:22;15.07;;;10.73;;
10013;SDS011;45684;48.358;10.746;2023-02-07T00:58:51;15.00;;;11.30;;
10013;SDS011;45684;48.358;10.746;2023-02-07T01:01:20;14.33;;;11.03;;
10013;SDS011;45684;48.358;10.746;2023-02-07T01:03:49;15.53;;;11.67;;
10013;SDS011;45684;48.358;10.746;2023-02-07T01:06:19;14.30;;;11.03;;
10013;SDS011;45684;48.358;10.746;2023-02-07T01:08:47;15.77;;;11.83;;
10013;SDS011;45684;48.358;10.746;2023-02-07T01:11:15;15.23;;;11.63;;
10013;SDS011;45684;48.358;10.746;2023-02-07T01:13:44;15.17;;;11.57;;
10013;SDS011;45684;48.358;10.746;2023-02-07T01:16:18;16.50;;;12.07;;
10013;SDS011;45684;48.358;10.746;2023-02-07T01:18:48;16.47;;;11.77;;
10013;SDS011;45684;48.358;10.746;2023-02-07T01:21:17;14.43;;;11.20;;
10013;SDS011;45684;48.358;10.746;2023-02-07T01:23:47;15.90;;;11.97;;
10013;SDS011;45684;48.358;10.746;2023-02-07T01:26:15;15.50;;;12.20;;
10013;SDS011;45684;48.358;10.746;2023-02-07T01:28:43;14.63;;;11.63;;
10013;SDS011;45684;48.358;10.746;2023-02-07T01:31:12;17.50;;;12.10;;
10013;SDS011;45684;48.358;10.746;2023-02-07T01:33:40;16.60;;;12.47;;
10013;SDS011;45684;48.358;10.746;2023-02-07T01:36:08;16.30;;;12.70;;
10013;SDS011;45684;48.358;10.746;2023-02-07T01:38:39;17.10;;;13.00;;
10013;SDS011;45684;48.358;10.746;2023-02-07T01:41:09;16.03;;;12.90;;
10013;SDS011;45684;48.358;10.746;2023-02-07T01:43:51;17.30;;;12.93;;
10013;SDS011;45684;48.358;10.746;2023-02-07T01:46:21;17.57;;;12.37;;
10013;SDS011;45684;48.358;10.746;2023-02-07T01:48:48;16.27;;;12.43;;
10013;SDS011;45684;48.358;10.746;2023-02-07T01:51:18;15.10;;;12.33;;
10013;SDS011;45684;48.358;10.746;2023-02-07T01:53:46;16.37;;;12.03;;
10013;SDS011;45684;48.358;10.746;2023-02-07T01:56:16;16.83;;;12.47;;
10013;SDS011;45684;48.358;10.746;2023-02-07T01:58:57;15.27;;;11.80;;
10013;SDS011;45684;48.358;10.746;2023-02-07T02:01:26;14.60;;;11.57;;
10013;SDS011;45684;48.358;10.746;2023-02-07T02:03:54;15.23;;;12.30;;
10013;SDS011;45684;48.358;10.746;2023-02-07T02:06:24;17.23;;;12.57;;
10013;SDS011;45684;48.358;10.746;2023-02-07T02:08:56;16.67;;;12.13;;
10013;SDS011;45684;48.358;10.746;2023-02-07T02:14:34;15.80;;;12.47;;
10013;SDS011;45684;48.358;10.746;2023-02-07T02:17:21;16.07;;;11.53;;
10013;SDS011;45684;48.358;10.746;2023-02-07T02:20:14;14.97;;;11.63;;
10013;SDS011;45684;48.358;10.746;2023-02-07T02:23:08;14.30;;;12.23;;
10013;SDS011;45684;48.358;10.746;2023-02-07T02:25:54;17.77;;;12.10;;
10013;SDS011;45684;48.358;10.746;2023-02-07T02:35:03;17.17;;;13.33;;
10013;SDS011;45684;48.358;10.746;2023-02-07T02:37:42;17.87;;;12.03;;
10013;SDS011;45684;48.358;10.746;2023-02-07T02:40:17;17.00;;;12.73;;
10013;SDS011;45684;48.358;10.746;2023-02-07T02:42:51;18.50;;;14.07;;
10013;SDS011;45684;48.358;10.746;2023-02-07T02:45:26;15.47;;;12.93;;
10013;SDS011;45684;48.358;10.746;2023-02-07T02:47:57;16.80;;;12.87;;
10013;SDS011;45684;48.358;10.746;2023-02-07T02:50:29;17.40;;;13.57;;
10013;SDS011;45684;48.358;10.746;2023-02-07T02:53:00;17.40;;;13.43;;
10013;SDS011;45684;48.358;10.746;2023-02-07T02:55:37;16.57;;;12.47;;
10013;SDS011;45684;48.358;10.746;2023-02-07T02:58:33;17.03;;;13.07;;
10013;SDS011;45684;48.358;10.746;2023-02-07T03:01:13;18.43;;;13.07;;
10013;SDS011;45684;48.358;10.746;2023-02-07T03:03:53;20.20;;;13.30;;
10013;SDS011;45684;48.358;10.746;2023-02-07T03:06:34;15.77;;;12.63;;
10013;SDS011;45684;48.358;10.746;2023-02-07T03:09:15;16.43;;;12.73;;
10013;SDS011;45684;48.358;10.746;2023-02-07T03:11:54;16.57;;;12.93;;
10013;SDS011;45684;48.358;10.746;2023-02-07T03:14:25;16.87;;;12.87;;
10013;SDS011;45684;48.358;10.746;2023-02-07T03:17:04;15.13;;;12.13;;
10013;SDS011;45684;48.358;10.746;2023-02-07T03:19:42;16.50;;;12.53;;
10013;SDS011;45684;48.358;10.746;2023-02-07T03:22:15;14.63;;;12.77;;
10013;SDS011;45684;48.358;10.746;2023-02-07T03:24:49;15.67;;;12.50;;
10013;SDS011;45684;48.358;10.746;2023-02-07T03:27:21;14.20;;;11.93;;
10013;SDS011;45684;48.358;10.746;2023-02-07T03:29:51;14.83;;;12.40;;
10013;SDS011;45684;48.358;10.746;2023-02-07T03:32:23;17.43;;;13.57;;
10013;SDS011;45684;48.358;10.746;2023-02-07T03:34:53;15.77;;;12.53;;
10013;SDS011;45684;48.358;10.746;2023-02-07T03:37:28;17.27;;;12.80;;
10013;SDS011;45684;48.358;10.746;2023-02-07T03:40:01;14.10;;;12.03;;
10013;SDS011;45684;48.358;10.746;2023-02-07T03:42:31;15.20;;;12.43;;
10013;SDS011;45684;48.358;10.746;2023-02-07T03:45:02;16.03;;;12.27;;
10013;SDS011;45684;48.358;10.746;2023-02-07T03:47:32;14.47;;;12.43;;
10013;SDS011;45684;48.358;10.746;2023-02-07T03:49:59;15.00;;;12.83;;
10013;SDS011;45684;48.358;10.746;2023-02-07T03:52:29;16.50;;;12.67;;
10013;SDS011;45684;48.358;10.746;2023-02-07T03:54:56;17.43;;;11.97;;
10013;SDS011;45684;48.358;10.746;2023-02-07T03:57:24;14.70;;;12.17;;
10013;SDS011;45684;48.358;10.746;2023-02-07T03:59:52;15.27;;;12.50;;
10013;SDS011;45684;48.358;10.746;2023-02-07T04:02:20;16.20;;;12.80;;
10013;SDS011;45684;48.358;10.746;2023-02-07T04:04:48;15.23;;;12.50;;
10013;SDS011;45684;48.358;10.746;2023-02-07T04:07:15;17.27;;;13.10;;
10013;SDS011;45684;48.358;10.746;2023-02-07T04:09:45;15.00;;;12.17;;
10013;SDS011;45684;48.358;10.746;2023-02-07T04:12:12;17.67;;;13.43;;
10013;SDS011;45684;48.358;10.746;2023-02-07T04:14:40;17.37;;;13.80;;
10013;SDS011;45684;48.358;10.746;2023-02-07T04:17:08;14.40;;;12.40;;
10013;SDS011;45684;48.358;10.746;2023-02-07T04:19:36;18.40;;;11.77;;
10013;SDS011;45684;48.358;10.746;2023-02-07T04:22:04;13.90;;;11.73;;
10013;SDS011;45684;48.358;10.746;2023-02-07T04:24:31;16.77;;;11.80;;
10013;SDS011;45684;48.358;10.746;2023-02-07T04:27:03;16.30;;;12.10;;
10013;SDS011;45684;48.358;10.746;2023-02-07T04:29:30;15.53;;;11.90;;
10013;SDS011;45684;48.358;10.746;2023-02-07T04:31:58;13.37;;;10.97;;
10013;SDS011;45684;48.358;10.746;2023-02-07T04:34:26;14.43;;;11.93;;
10013;SDS011;45684;48.358;10.746;2023-02-07T04:36:54;13.90;;;11.87;;
10013;SDS011;45684;48.358;10.746;2023-02-07T04:39:22;15.53;;;11.97;;
10013;SDS011;45684;48.358;10.746;2023-02-07T04:41:50;13.90;;;11.67;;
10013;SDS011;45684;48.358;10.746;2023-02-07T04:44:19;12.73;;;11.37;;
10013;SDS011;45684;48.358;10.746;2023-02-07T04:46:47;15.10;;;12.63;;
10013;SDS011;45684;48.358;10.746;2023-02-07T04:49:15;14.13;;;11.43;;
10013;SDS011;45684;48.358;10.746;2023-02-07T04:51:42;14.43;;;12.30;;
10013;SDS011;45684;48.358;10.746;2023-02-07T04:54:10;15.17;;;11.47;;
10013;SDS011;45684;48.358;10.746;2023-02-07T04:56:38;14.97;;;11.63;;
10013;SDS011;45684;48.358;10.746;2023-02-07T04:59:06;14.50;;;11.37;;
10013;SDS011;45684;48.358;10.746;2023-02-07T05:01:35;13.10;;;11.13;;
10013;SDS011;45684;48.358;10.746;2023-02-07T05:04:04;16.10;;;11.53;;
10013;SDS011;45684;48.358;10.746;2023-02-07T05:06:32;13.73;;;11.60;;
10013;SDS011;45684;48.358;10.746;2023-02-07T05:09:00;14.60;;;11.77;;
10013;SDS011;45684;48.358;10.746;2023-02-07T05:11:28;15.60;;;11.90;;
10013;SDS011;45684;48.358;10.746;2023-02-07T05:13:56;16.17;;;11.53;;
10013;SDS011;45684;48.358;10.746;2023-02-07T05:16:24;14.50;;;12.07;;
10013;SDS011;45684;48.358;10.746;2023-02-07T05:18:53;16.17;;;11.77;;
10013;SDS011;45684;48.358;10.746;2023-02-07T05:21:21;14.30;;;11.07;;
10013;SDS011;45684;48.358;10.746;2023-02-07T05:23:48;13.50;;;10.97;;
10013;SDS011;45684;48.358;10.746;2023-02-07T05:26:16;15.27;;;12.27;;
10013;SDS011;45684;48.358;10.746;2023-02-07T05:28:44;15.73;;;11.43;;
10013;SDS011;45684;48.358;10.746;2023-02-07T05:31:12;15.40;;;12.00;;
10013;SDS011;45684;48.358;10.746;2023-02-07T05:33:40;17.40;;;12.50;;
10013;SDS011;45684;48.358;10.746;2023-02-07T05:36:08;13.70;;;11.53;;
10013;SDS011;45684;48.358;10.746;2023-02-07T05:38:36;14.43;;;11.97;;
10013;SDS011;45684;48.358;10.746;2023-02-07T05:41:04;14.23;;;11.63;;
10013;SDS011;45684;48.358;10.746;2023-02-07T05:43:32;13.13;;;11.23;;
10013;SDS011;45684;48.358;10.746;2023-02-07T05:45:59;14.77;;;11.50;;
10013;SDS011;45684;48.358;10.746;2023-02-07T05:48:27;13.50;;;11.20;;
10013;SDS011;45684;48.358;10.746;2023-02-07T05:50:55;16.30;;;11.47;;
10013;SDS011;45684;48.358;10.746;2023-02-07T05:53:24;14.67;;;11.50;;
10013;SDS011;45684;48.358;10.746;2023-02-07T05:55:52;13.03;;;11.03;;
10013;SDS011;45684;48.358;10.746;2023-02-07T05:58:20;14.27;;;11.50;;
10013;SDS011;45684;48.358;10.746;2023-02-07T06:00:48;14.10;;;11.03;;
10013;SDS011;45684;48.358;10.746;2023-02-07T06:03:16;13.20;;;11.30;;
10013;SDS011;45684;48.358;10.746;2023-02-07T06:05:44;14.00;;;11.20;;
10013;SDS011;45684;48.358;10.746;2023-02-07T06:08:11;14.67;;;11.53;;
10013;SDS011;45684;48.358;10.746;2023-02-07T06:10:41;14.27;;;11.40;;
10013;SDS011;45684;48.358;10.746;2023-02-07T06:13:08;16.80;;;11.20;;
10013;SDS011;45684;48.358;10.746;2023-02-07T06:15:36;15.83;;;12.67;;
10013;SDS011;45684;48.358;10.746;2023-02-07T06:18:04;15.07;;;11.27;;
10013;SDS011;45684;48.358;10.746;2023-02-07T06:20:32;15.50;;;11.67;;
10013;SDS011;45684;48.358;10.746;2023-02-07T06:23:01;13.23;;;10.80;;
10013;SDS011;45684;48.358;10.746;2023-02-07T06:25:28;13.20;;;11.00;;
10013;SDS011;45684;48.358;10.746;2023-02-07T06:27:58;13.53;;;10.90;;
10013;SDS011;45684;48.358;10.746;2023-02-07T06:30:26;15.20;;;11.43;;
10013;SDS011;45684;48.358;10.746;2023-02-07T06:32:54;14.67;;;10.93;;
10013;SDS011;45684;48.358;10.746;2023-02-07T06:35:21;12.40;;;10.87;;
10013;SDS011;45684;48.358;10.746;2023-02-07T06:37:49;12.10;;;10.17;;
10013;SDS011;45684;48.358;10.746;2023-02-07T06:40:20;15.73;;;10.80;;
10013;SDS011;45684;48.358;10.746;2023-02-07T06:42:48;14.60;;;10.53;;
10013;SDS011;45684;48.358;10.746;2023-02-07T06:45:17;15.03;;;11.30;;
10013;SDS011;45684;48.358;10.746;2023-02-07T06:47:45;11.73;;;10.13;;
10013;SDS011;45684;48.358;10.746;2023-02-07T06:50:12;13.70;;;10.90;;
10013;SDS011;45684;48.358;10.746;2023-02-07T06:52:40;13.00;;;10.77;;
10013;SDS011;45684;48.358;10.746;2023-02-07T06:55:08;11.97;;;10.23;;
10013;SDS011;45684;48.358;10.746;2023-02-07T06:57:36;13.83;;;10.83;;
10013;SDS011;45684;48.358;10.746;2023-02-07T07:00:04;15.00;;;11.40;;
10013;SDS011;45684;48.358;10.746;2023-02-07T07:02:34;13.83;;;10.73;;
10013;SDS011;45684;48.358;10.746;2023-02-07T07:05:02;12.77;;;9.83;;
10013;SDS011;45684;48.358;10.746;2023-02-07T07:07:31;13.23;;;10.57;;
10013;SDS011;45684;48.358;10.746;2023-02-07T07:09:59;14.63;;;10.80;;
10013;SDS011;45684;48.358;10.746;2023-02-07T07:12:27;11.97;;;10.70;;
10013;SDS011;45684;48.358;10.746;2023-02-07T07:14:54;13.60;;;10.93;;
10013;SDS011;45684;48.358;10.746;2023-02-07T07:17:22;13.47;;;11.37;;
10013;SDS011;45684;48.358;10.746;2023-02-07T07:19:51;15.07;;;11.07;;
10013;SDS011;45684;48.358;10.746;2023-02-07T07:22:19;13.87;;;10.23;;
10013;SDS011;45684;48.358;10.746;2023-02-07T07:24:47;13.73;;;10.57;;
10013;SDS011;45684;48.358;10.746;2023-02-07T07:27:15;13.10;;;10.80;;
10013;SDS011;45684;48.358;10.746;2023-02-07T07:29:43;13.77;;;10.37;;
10013;SDS011;45684;48.358;10.746;2023-02-07T07:32:12;12.93;;;10.77;;
10013;SDS011;45684;48.358;10.746;2023-02-07T07:34:59;13.13;;;10.13;;
10013;SDS011;45684;48.358;10.746;2023-02-07T07:37:27;13.80;;;10.43;;
10013;SDS011;45684;48.358;10.746;2023-02-07T07:39:55;13.63;;;10.23;;
10013;SDS011;45684;48.358;10.746;2023-02-07T07:42:23;13.37;;;11.57;;
10013;SDS011;45684;48.358;10.746;2023-02-07T07:45:05;14.93;;;10.80;;
10013;SDS011;45684;48.358;10.746;2023-02-07T07:47:35;12.40;;;10.17;;
10013;SDS011;45684;48.358;10.746;2023-02-07T07:50:04;15.20;;;10.53;;
10013;SDS011;45684;48.358;10.746;2023-02-07T07:52:33;11.60;;;9.90;;
10013;SDS011;45684;48.358;10.746;2023-02-07T07:55:01;16.60;;;10.80;;
10013;SDS011;45684;48.358;10.746;2023-02-07T07:57:29;12.67;;;10.13;;
10013;SDS011;45684;48.358;10.746;2023-02-07T07:59:57;13.73;;;10.30;;
10013;SDS011;45684;48.358;10.746;2023-02-07T08:02:24;14.20;;;10.67;;
10013;SDS011;45684;48.358;10.746;2023-02-07T08:04:53;11.50;;;10.23;;
10013;SDS011;45684;48.358;10.746;2023-02-07T08:07:22;14.57;;;10.40;;
10013;SDS011;45684;48.358;10.746;2023-02-07T08:09:50;12.70;;;10.40;;
10013;SDS011;45684;48.358;10.746;2023-02-07T08:12:18;13.57;;;10.30;;
10013;SDS011;45684;48.358;10.746;2023-02-07T08:14:45;11.67;;;9.70;;
10013;SDS011;45684;48.358;10.746;2023-02-07T08:17:13;14.87;;;11.07;;
10013;SDS011;45684;48.358;10.746;2023-02-07T08:19:41;13.00;;;10.47;;
10013;SDS011;45684;48.358;10.746;2023-02-07T08:22:09;13.73;;;10.30;;
10013;SDS011;45684;48.358;10.746;2023-02-07T08:24:40;13.53;;;11.00;;
10013;SDS011;45684;48.358;10.746;2023-02-07T08:27:08;12.00;;;10.03;;
10013;SDS011;45684;48.358;10.746;2023-02-07T08:29:36;12.50;;;10.37;;
10013;SDS011;45684;48.358;10.746;2023-02-07T08:32:04;13.73;;;10.20;;
10013;SDS011;45684;48.358;10.746;2023-02-07T08:34:32;15.50;;;11.27;;
10013;SDS011;45684;48.358;10.746;2023-02-07T08:37:03;13.60;;;10.70;;
10013;SDS011;45684;48.358;10.746;2023-02-07T08:39:32;15.23;;;10.33;;
10013;SDS011;45684;48.358;10.746;2023-02-07T08:42:02;14.40;;;10.93;;
10013;SDS011;45684;48.358;10.746;2023-02-07T08:44:33;13.03;;;10.37;;
10013;SDS011;45684;48.358;10.746;2023-02-07T08:47:01;16.27;;;11.47;;
10013;SDS011;45684;48.358;10.746;2023-02-07T08:49:29;11.50;;;9.90;;
10013;SDS011;45684;48.358;10.746;2023-02-07T08:51:57;13.70;;;10.83;;
10013;SDS011;45684;48.358;10.746;2023-02-07T08:54:25;12.90;;;10.43;;
10013;SDS011;45684;48.358;10.746;2023-02-07T08:56:52;12.77;;;10.63;;
10013;SDS011;45684;48.358;10.746;2023-02-07T08:59:22;13.30;;;10.67;;
10013;SDS011;45684;48.358;10.746;2023-02-07T09:01:49;12.33;;;9.80;;
10013;SDS011;45684;48.358;10.746;2023-02-07T09:04:17;15.30;;;11.13;;
10013;SDS011;45684;48.358;10.746;2023-02-07T09:06:45;12.70;;;10.27;;
10013;SDS011;45684;48.358;10.746;2023-02-07T09:09:13;14.77;;;10.43;;
10013;SDS011;45684;48.358;10.746;2023-02-07T09:11:41;16.13;;;10.47;;
10013;SDS011;45684;48.358;10.746;2023-02-07T09:14:09;12.87;;;10.20;;
10013;SDS011;45684;48.358;10.746;2023-02-07T09:16:38;14.03;;;10.40;;
10013;SDS011;45684;48.358;10.746;2023-02-07T09:19:06;16.07;;;10.70;;
10013;SDS011;45684;48.358;10.746;2023-02-07T09:21:34;12.03;;;10.07;;
10013;SDS011;45684;48.358;10.746;2023-02-07T09:24:03;12.33;;;9.77;;
10013;SDS011;45684;48.358;10.746;2023-02-07T09:26:31;12.53;;;9.17;;
10013;SDS011;45684;48.358;10.746;2023-02-07T09:29:00;13.57;;;10.47;;
10013;SDS011;45684;48.358;10.746;2023-02-07T09:31:28;12.00;;;10.53;;
10013;SDS011;45684;48.358;10.746;2023-02-07T09:33:58;12.23;;;10.20;;
10013;SDS011;45684;48.358;10.746;2023-02-07T09:36:28;12.73;;;10.50;;
10013;SDS011;45684;48.358;10.746;2023-02-07T09:38:57;13.10;;;10.67;;
10013;SDS011;45684;48.358;10.746;2023-02-07T09:41:28;11.67;;;10.40;;
10013;SDS011;45684;48.358;10.746;2023-02-07T09:44:04;13.77;;;10.17;;
10013;SDS011;45684;48.358;10.746;2023-02-07T09:46:41;14.00;;;10.70;;
10013;SDS011;45684;48.358;10.746;2023-02-07T09:49:16;13.80;;;10.93;;
10013;SDS011;45684;48.358;10.746;2023-02-07T09:51:54;13.30;;;10.50;;
10013;SDS011;45684;48.358;10.746;2023-02-07T09:54:24;12.97;;;9.73;;
10013;SDS011;45684;48.358;10.746;2023-02-07T09:56:58;13.73;;;10.90;;
10013;SDS011;45684;48.358;10.746;2023-02-07T09:59:30;13.83;;;10.87;;
10013;SDS011;45684;48.358;10.746;2023-02-07T10:02:12;14.37;;;10.80;;
10013;SDS011;45684;48.358;10.746;2023-02-07T10:04:47;14.30;;;11.33;;
10013;SDS011;45684;48.358;10.746;2023-02-07T10:07:19;14.30;;;11.33;;
10013;SDS011;45684;48.358;10.746;2023-02-07T10:09:47;12.70;;;10.60;;
10013;SDS011;45684;48.358;10.746;2023-02-07T10:12:26;16.33;;;11.20;;
10013;SDS011;45684;48.358;10.746;2023-02-07T10:15:10;14.00;;;11.20;;
10013;SDS011;45684;48.358;10.746;2023-02-07T10:18:01;13.17;;;10.47;;
10013;SDS011;45684;48.358;10.746;2023-02-07T10:20:46;14.17;;;10.93;;
10013;SDS011;45684;48.358;10.746;2023-02-07T10:23:24;13.77;;;10.63;;
10013;SDS011;45684;48.358;10.746;2023-02-07T10:26:09;12.40;;;10.90;;
10013;SDS011;45684;48.358;10.746;2023-02-07T10:28:45;15.83;;;11.60;;
10013;SDS011;45684;48.358;10.746;2023-02-07T10:31:38;12.73;;;10.80;;
10013;SDS011;45684;48.358;10.746;2023-02-07T10:34:10;16.20;;;11.63;;
10013;SDS011;45684;48.358;10.746;2023-02-07T10:36:43;15.80;;;11.40;;
10013;SDS011;45684;48.358;10.746;2023-02-07T10:39:14;13.93;;;11.50;;
10013;SDS011;45684;48.358;10.746;2023-02-07T10:41:45;14.20;;;11.20;;
10013;SDS011;45684;48.358;10.746;2023-02-07T10:44:13;15.90;;;10.93;;
10013;SDS011;45684;48.358;10.746;2023-02-07T10:46:44;14.23;;;10.60;;
10013;SDS011;45684;48.358;10.746;2023-02-07T10:49:16;12.73;;;10.73;;
10013;SDS011;45684;48.358;10.746;2023-02-07T10:51:52;13.60;;;10.40;;
10013;SDS011;45684;48.358;10.746;2023-02-07T10:54:23;13.67;;;11.23;;
10013;SDS011;45684;48.358;10.746;2023-02-07T10:56:51;14.03;;;11.10;;
10013;SDS011;45684;48.358;10.746;2023-02-07T10:59:31;13.20;;;11.27;;
10013;SDS011;45684;48.358;10.746;2023-02-07T11:02:21;14.93;;;11.30;;
10013;SDS011;45684;48.358;10.746;2023-02-07T11:05:05;13.23;;;10.73;;
10013;SDS011;45684;48.358;10.746;2023-02-07T11:07:59;13.00;;;10.63;;
10013;SDS011;45684;48.358;10.746;2023-02-07T11:10:31;14.43;;;10.60;;
10013;SDS011;45684;48.358;10.746;2023-02-07T11:13:01;13.47;;;11.47;;
10013;SDS011;45684;48.358;10.746;2023-02-07T11:15:44;11.87;;;10.50;;
10013;SDS011;45684;48.358;10.746;2023-02-07T11:18:26;12.63;;;10.63;;
10013;SDS011;45684;48.358;10.746;2023-02-07T11:21:07;12.13;;;10.33;;
10013;SDS011;45684;48.358;10.746;2023-02-07T11:23:51;14.50;;;10.13;;
10013;SDS011;45684;48.358;10.746;2023-02-07T11:26:22;13.90;;;10.80;;
10013;SDS011;45684;48.358;10.746;2023-02-07T11:28:51;12.83;;;10.77;;
10013;SDS011;45684;48.358;10.746;2023-02-07T11:31:23;14.20;;;10.50;;
10013;SDS011;45684;48.358;10.746;2023-02-07T11:34:06;13.07;;;10.43;;
10013;SDS011;45684;48.358;10.746;2023-02-07T11:36:36;14.70;;;10.93;;
10013;SDS011;45684;48.358;10.746;2023-02-07T11:39:11;13.80;;;11.03;;
10013;SDS011;45684;48.358;10.746;2023-02-07T11:41:51;13.90;;;10.80;;
10013;SDS011;45684;48.358;10.746;2023-02-07T11:44:22;12.53;;;10.80;;
10013;SDS011;45684;48.358;10.746;2023-02-07T11:46:52;12.50;;;10.63;;
10013;SDS011;45684;48.358;10.746;2023-02-07T11:49:24;13.07;;;10.37;;
10013;SDS011;45684;48.358;10.746;2023-02-07T11:51:54;11.23;;;10.03;;
10013;SDS011;45684;48.358;10.746;2023-02-07T11:54:27;12.73;;;10.33;;
10013;SDS011;45684;48.358;10.746;2023-02-07T11:56:59;14.00;;;9.90;;
10013;SDS011;45684;48.358;10.746;2023-02-07T11:59:30;11.70;;;9.90;;
10013;SDS011;45684;48.358;10.746;2023-02-07T12:02:01;13.93;;;9.57;;
10013;SDS011;45684;48.358;10.746;2023-02-07T12:04:41;11.43;;;9.40;;
10013;SDS011;45684;48.358;10.746;2023-02-07T12:07:11;10.93;;;8.83;;
10013;SDS011;45684;48.358;10.746;2023-02-07T12:09:47;9.27;;;8.20;;
10013;SDS011;45684;48.358;10.746;2023-02-07T12:12:19;9.93;;;7.97;;
10013;SDS011;45684;48.358;10.746;2023-02-07T12:14:51;10.23;;;8.10;;
10013;SDS011;45684;48.358;10.746;2023-02-07T12:17:25;9.03;;;7.83;;
10013;SDS011;45684;48.358;10.746;2023-02-07T12:20:02;10.33;;;8.47;;
10013;SDS011;45684;48.358;10.746;2023-02-07T12:22:37;10.23;;;8.60;;
10013;SDS011;45684;48.358;10.746;2023-02-07T12:25:26;8.73;;;7.43;;
10013;SDS011;45684;48.358;10.746;2023-02-07T12:28:00;10.10;;;7.30;;
10013;SDS011;45684;48.358;10.746;2023-02-07T12:30:39;8.67;;;7.10;;
10013;SDS011;45684;48.358;10.746;2023-02-07T12:33:12;6.93;;;6.10;;
10013;SDS011;45684;48.358;10.746;2023-02-07T12:35:47;8.00;;;6.63;;
10013;SDS011;45684;48.358;10.746;2023-02-07T12:38:29;6.80;;;6.10;;
10013;SDS011;45684;48.358;10.746;2023-02-07T12:41:07;7.20;;;5.77;;
10013;SDS011;45684;48.358;10.746;2023-02-07T12:43:42;7.60;;;5.90;;
10013;SDS011;45684;48.358;10.746;2023-02-07T12:46:20;6.63;;;5.80;;
10013;SDS011;45684;48.358;10.746;2023-02-07T12:49:04;6.73;;;5.70;;
10013;SDS011;45684;48.358;10.746;2023-02-07T12:51:49;7.60;;;5.87;;
10013;SDS011;45684;48.358;10.746;2023-02-07T12:54:28;7.43;;;5.93;;
10013;SDS011;45684;48.358;10.746;2023-02-07T12:57:08;6.23;;;5.23;;
10013;SDS011;45684;48.358;10.746;2023-02-07T12:59:44;7.40;;;5.77;;
10013;SDS011;45684;48.358;10.746;2023-02-07T13:02:28;7.17;;;5.83;;
10013;SDS011;45684;48.358;10.746;2023-02-07T13:05:08;6.60;;;5.80;;
10013;SDS011;45684;48.358;10.746;2023-02-07T13:07:53;5.90;;;5.30;;
10013;SDS011;45684;48.358;10.746;2023-02-07T13:10:30;6.80;;;5.53;;
10013;SDS011;45684;48.358;10.746;2023-02-07T13:13:08;7.07;;;5.27;;
10013;SDS011;45684;48.358;10.746;2023-02-07T13:15:45;6.20;;;5.43;;
10013;SDS011;45684;48.358;10.746;2023-02-07T13:18:20;5.67;;;5.03;;
10013;SDS011;45684;48.358;10.746;2023-02-07T13:21:00;5.53;;;5.03;;
10013;SDS011;45684;48.358;10.746;2023-02-07T13:23:36;5.97;;;5.00;;
10013;SDS011;45684;48.358;10.746;2023-02-07T13:26:09;5.97;;;5.37;;
10013;SDS011;45684;48.358;10.746;2023-02-07T13:28:43;5.70;;;5.07;;
10013;SDS011;45684;48.358;10.746;2023-02-07T13:31:14;5.60;;;5.10;;
10013;SDS011;45684;48.358;10.746;2023-02-07T13:33:45;6.07;;;5.37;;
10013;SDS011;45684;48.358;10.746;2023-02-07T13:36:17;6.07;;;4.73;;
10013;SDS011;45684;48.358;10.746;2023-02-07T13:38:51;6.13;;;5.33;;
10013;SDS011;45684;48.358;10.746;2023-02-07T13:41:29;5.33;;;4.80;;
10013;SDS011;45684;48.358;10.746;2023-02-07T13:44:04;5.30;;;4.80;;
10013;SDS011;45684;48.358;10.746;2023-02-07T13:49:53;6.00;;;5.40;;
10013;SDS011;45684;48.358;10.746;2023-02-07T13:52:29;7.43;;;5.30;;
10013;SDS011;45684;48.358;10.746;2023-02-07T13:55:04;5.07;;;4.50;;
10013;SDS011;45684;48.358;10.746;2023-02-07T13:57:42;4.10;;;3.70;;
10013;SDS011;45684;48.358;10.746;2023-02-07T14:00:30;4.13;;;3.70;;
10013;SDS011;45684;48.358;10.746;2023-02-07T14:03:03;4.33;;;3.93;;
10013;SDS011;45684;48.358;10.746;2023-02-07T14:05:34;4.60;;;4.20;;
10013;SDS011;45684;48.358;10.746;2023-02-07T14:08:19;4.00;;;3.53;;
10013;SDS011;45684;48.358;10.746;2023-02-07T14:10:50;5.07;;;4.40;;
10013;SDS011;45684;48.358;10.746;2023-02-07T14:13:20;6.30;;;5.43;;
10013;SDS011;45684;48.358;10.746;2023-02-07T14:15:53;6.13;;;5.43;;
10013;SDS011;45684;48.358;10.746;2023-02-07T14:18:31;5.00;;;4.50;;
10013;SDS011;45684;48.358;10.746;2023-02-07T14:21:21;4.77;;;4.20;;
10013;SDS011;45684;48.358;10.746;2023-02-07T14:24:18;5.77;;;4.30;;
10013;SDS011;45684;48.358;10.746;2023-02-07T14:27:02;8.87;;;6.70;;
10013;SDS011;45684;48.358;10.746;2023-02-07T14:29:52;7.80;;;7.00;;
10013;SDS011;45684;48.358;10.746;2023-02-07T14:32:38;7.10;;;6.40;;
10013;SDS011;45684;48.358;10.746;2023-02-07T14:35:27;8.67;;;6.63;;
10013;SDS011;45684;48.358;10.746;2023-02-07T14:37:59;8.77;;;6.77;;
10013;SDS011;45684;48.358;10.746;2023-02-07T14:40:35;7.90;;;6.47;;
10013;SDS011;45684;48.358;10.746;2023-02-07T14:43:42;7.07;;;6.27;;
10013;SDS011;45684;48.358;10.746;2023-02-07T14:46:29;7.67;;;6.77;;
10013;SDS011;45684;48.358;10.746;2023-02-07T14:49:06;8.53;;;6.80;;
10013;SDS011;45684;48.358;10.746;2023-02-07T14:51:42;8.43;;;6.67;;
10013;SDS011;45684;48.358;10.746;2023-02-07T14:54:15;7.67;;;6.40;;
10013;SDS011;45684;48.358;10.746;2023-02-07T14:56:48;9.20;;;6.70;;